Disclaimer

Please do not use the information listed here in-flight or in-navigation, as they are not provided to us by the airports but are provided by volunteers, so they might be outdated.

Search


Regions


Airport information page

Radio informations:
Tower (TWR) - 118.35 MHz
DEP - 121.0 MHz
Automatic Terminal Information Service (ATIS) - 126.6 MHz
Approach (APP) - 119.0 MHz

Airport informations:
Latitude: 41° 46' 12.00" N
Longitude: 140° 49' 19.00" E
Elevation: 151 feet - 46 meters
Operating hours: Remarks
Operating agency: Civil government, landing fees and diplomatic clearance may be required
Timezone: UTC+9
Fuel: Jet fuel avaiable but type is unknown.

100/130 MIL Spec, low lead, aviation gasoline (BLUE)

Runway information:
12/30 - 9842 x 150 feet< - >3000 x 46 meters

Recent METARs:
RJCH 122110Z 02006KT 9999 FEW040 SCT100 02/M01 Q1015 RMK 1CU040 3AC100 A2998
RJCH 122110Z 02006KT 9999 FEW040 SCT100 02/M01 Q1015 RMK 1CU040 3AC100 A2998
RJCH 122200Z 01007KT 9999 FEW030 02/M01 Q1015

Airport on the map: